createdAt,value
2022-11-29T00:46:06.646Z,27.02
2022-11-29T04:40:14.176Z,30.38
2022-11-29T06:16:33.424Z,30.13
2022-11-29T06:49:37.873Z,29.75
2022-11-29T06:52:39.129Z,28.23
2022-11-29T06:55:15.971Z,28.77
2022-11-29T06:57:55.626Z,27.25
2022-11-29T07:00:28.685Z,28.33
2022-11-29T07:03:38.031Z,28.48
2022-11-29T07:06:15.325Z,28.63
2022-11-29T07:08:43.374Z,27.45
2022-11-29T07:11:12.220Z,27.52
2022-11-29T07:13:40.140Z,28.23
2022-11-29T07:16:26.413Z,27.75
2022-11-29T07:19:17.350Z,26.75
2022-11-29T07:22:23.343Z,26.27
2022-11-29T07:24:53.388Z,26.25
2022-11-29T07:27:29.661Z,26.25
2022-11-29T07:30:23.801Z,27.02
2022-11-29T07:33:14.185Z,26.90
2022-11-29T07:36:02.374Z,26.33
2022-11-29T07:38:42.088Z,25.95
2022-11-29T07:41:25.327Z,26.70
2022-11-29T07:44:04.699Z,28.35
2022-11-29T07:46:32.574Z,26.20
2022-11-29T07:49:00.086Z,29.15
2022-11-29T07:51:27.712Z,28.00
2022-11-29T07:53:55.185Z,27.15
2022-11-29T07:56:22.714Z,26.42
2022-11-29T07:58:57.125Z,27.60
2022-11-29T08:01:24.590Z,26.52
2022-11-29T08:03:52.135Z,28.00
2022-11-29T08:06:26.470Z,26.00
2022-11-29T08:08:54.185Z,26.40
2022-11-29T08:11:21.672Z,27.58
2022-11-29T08:13:49.103Z,27.60
2022-11-29T08:16:19.596Z,26.73
2022-11-29T08:18:47.225Z,27.08
2022-11-29T08:21:59.254Z,27.42
2022-11-29T08:24:52.202Z,26.15
2022-11-29T08:31:28.117Z,26.80
2022-11-29T08:34:38.472Z,25.42
2022-11-29T08:37:30.760Z,27.23
2022-11-29T08:40:35.913Z,26.20
2022-11-29T08:43:08.764Z,25.98
2022-11-29T08:45:40.730Z,27.05
2022-11-29T08:48:21.729Z,26.05
2022-11-29T08:50:52.536Z,29.50
2022-11-29T08:54:01.623Z,28.60
2022-11-29T08:57:31.012Z,26.73
2022-11-29T08:59:22.620Z,26.27
2022-11-29T09:02:09.478Z,25.27
2022-11-29T09:04:55.586Z,27.42
2022-11-29T09:07:50.355Z,26.98
2022-11-29T09:10:28.751Z,27.73
2022-11-29T09:13:01.050Z,26.30
2022-11-29T09:15:34.120Z,28.70
2022-11-29T09:18:04.470Z,28.88
2022-11-29T09:20:36.711Z,25.70
2022-11-29T09:23:32.414Z,26.27
2022-11-29T09:36:33.303Z,26.52
2022-11-29T09:39:52.441Z,30.42
2022-11-29T09:43:17.019Z,27.88
2022-11-29T09:46:25.492Z,26.83
2022-11-29T09:50:28.912Z,25.58
2022-11-29T09:53:25.993Z,26.75
2022-11-29T09:56:55.625Z,28.00
2022-11-29T10:00:10.274Z,26.60
2022-11-29T10:13:50.803Z,26.65
2022-11-29T10:17:06.197Z,29.10
2022-11-29T10:24:35.554Z,28.42
2022-11-29T10:27:21.541Z,27.40
2022-11-29T10:30:44.190Z,29.27
2022-11-29T10:33:46.212Z,26.77
2022-11-29T10:37:09.692Z,27.00
2022-11-29T10:40:04.576Z,28.23
2022-11-29T10:42:56.624Z,29.20
2022-11-29T10:51:41.913Z,27.52
2022-11-29T10:55:43.046Z,26.42
2022-11-29T10:59:03.700Z,27.60
2022-11-29T11:03:13.113Z,28.60
2022-11-29T11:06:13.897Z,29.05
2022-11-29T11:15:35.392Z,26.80
2022-11-29T11:18:05.845Z,27.90
2022-11-29T11:20:35.858Z,28.50
2022-11-29T11:23:05.638Z,28.73
2022-11-29T11:25:35.842Z,31.63
2022-11-29T11:28:15.258Z,26.77
2022-11-29T11:31:02.294Z,28.70
2022-11-29T11:33:35.234Z,31.92
2022-11-29T11:36:07.513Z,28.52
2022-11-29T11:38:37.138Z,30.80
2022-11-29T11:41:48.148Z,31.17
2022-11-29T11:44:46.887Z,27.15
2022-11-29T11:47:31.547Z,29.20
2022-11-29T11:50:02.269Z,29.55
2022-11-29T11:52:37.081Z,30.98
2022-11-29T11:55:22.479Z,29.17
2022-11-29T11:58:07.824Z,27.55
2022-11-29T12:01:05.852Z,28.77
2022-11-29T12:06:46.587Z,32.45
2022-11-29T12:09:19.206Z,29.13
2022-11-29T12:12:07.917Z,29.77
2022-11-29T12:14:42.762Z,27.50
2022-11-29T12:17:26.891Z,32.85
2022-11-29T12:20:13.952Z,28.88
2022-11-29T12:22:51.031Z,27.42
2022-11-29T12:25:23.479Z,29.00
2022-11-29T12:27:53.986Z,30.08
2022-11-29T12:30:21.337Z,34.45
2022-11-29T12:33:20.622Z,29.80
2022-11-29T12:35:59.837Z,30.27
2022-11-29T12:39:04.535Z,29.63
2022-11-29T12:41:42.027Z,33.95
2022-11-29T12:44:37.127Z,30.75
2022-11-29T12:47:37.136Z,29.70
2022-11-29T12:50:38.970Z,30.48
2022-11-29T12:53:35.136Z,29.23
2022-11-29T12:56:20.900Z,31.52
2022-11-29T12:59:09.758Z,30.38
2022-11-29T13:01:52.077Z,34.78
2022-11-29T13:04:47.415Z,31.95
2022-11-29T13:07:41.870Z,30.48
2022-11-29T13:10:53.527Z,35.83
2022-11-29T13:13:39.066Z,31.17
2022-11-29T13:16:21.319Z,31.67
2022-11-29T13:19:13.451Z,31.35
2022-11-29T13:21:54.871Z,30.77
2022-11-29T13:24:44.721Z,32.90
2022-11-29T13:27:23.543Z,31.45
2022-11-29T13:29:51.220Z,31.98
2022-11-29T13:32:40.111Z,34.53
2022-11-29T13:35:30.408Z,31.67
2022-11-29T13:38:28.455Z,30.92
2022-11-29T13:41:33.606Z,34.40
2022-11-29T13:44:12.898Z,33.25
2022-11-29T13:47:10.058Z,32.35
2022-11-29T13:49:56.040Z,31.35
2022-11-29T13:52:35.279Z,32.45
2022-11-29T13:55:06.553Z,36.63
2022-11-29T13:58:16.380Z,30.38
2022-11-29T14:00:44.336Z,32.15
2022-11-29T14:03:21.863Z,32.13
2022-11-29T14:05:52.107Z,33.58
2022-11-29T14:08:23.415Z,32.45
2022-11-29T14:10:52.421Z,30.90
2022-11-29T14:13:22.625Z,33.45
2022-11-29T14:15:56.688Z,31.88
2022-11-29T14:18:42.124Z,36.50
2022-11-29T14:21:10.011Z,31.10
2022-11-29T14:23:40.611Z,31.98
2022-11-29T14:26:07.973Z,32.65
2022-11-29T14:28:36.107Z,33.78
2022-11-29T14:31:04.629Z,32.97
2022-11-29T14:33:47.315Z,32.65
2022-11-29T14:36:14.832Z,31.35
2022-11-29T14:39:04.853Z,34.88
2022-11-29T14:46:47.740Z,31.40
2022-11-29T14:49:21.812Z,34.22
2022-11-29T14:52:09.393Z,31.08
2022-11-29T14:54:54.655Z,30.70
2022-11-29T14:57:47.020Z,31.25
2022-11-29T15:00:32.645Z,35.60
2022-11-29T15:03:17.702Z,32.40
2022-11-29T16:23:37.659Z,30.48
2022-11-29T16:26:05.045Z,33.53
